createdAt,value
2019-01-06T00:00:00.615Z,3.30
2019-01-06T02:26:45.142Z,0.70
2019-01-06T02:29:33.543Z,0.93
2019-01-06T02:32:22.221Z,0.90
2019-01-06T02:35:37.204Z,0.80
2019-01-06T02:38:37.566Z,0.77
2019-01-06T09:42:38.257Z,4.27
2019-01-06T14:59:38.204Z,7.97
2019-01-06T16:47:13.369Z,5.53
2019-01-06T16:50:19.541Z,6.57
2019-01-06T16:53:26.190Z,5.47
2019-01-06T17:09:11.369Z,5.30
2019-01-06T19:20:27.788Z,6.30
2019-01-06T19:23:18.098Z,6.13
2019-01-06T19:26:23.063Z,6.87
2019-01-06T19:29:31.378Z,7.83
2019-01-06T19:32:37.687Z,9.63
2019-01-06T19:35:42.971Z,8.33
2019-01-06T19:38:50.349Z,7.37
2019-01-06T19:41:57.203Z,10.38
2019-01-06T19:44:45.087Z,8.77
2019-01-06T19:47:47.387Z,7.80
2019-01-06T19:50:53.708Z,8.60
2019-01-06T19:54:08.243Z,8.93
2019-01-06T19:57:14.493Z,9.90
2019-01-06T20:00:22.193Z,10.37
2019-01-06T20:06:48.082Z,10.00
2019-01-06T20:09:58.730Z,9.83
2019-01-06T20:12:49.299Z,8.40
2019-01-06T20:16:04.386Z,10.10
2019-01-06T20:19:15.323Z,12.40
2019-01-06T20:22:29.009Z,9.07
2019-01-06T20:25:25.063Z,9.70
2019-01-06T20:28:22.383Z,11.10
2019-01-06T20:31:32.477Z,8.93
2019-01-06T20:34:24.120Z,11.27
2019-01-06T20:37:33.390Z,10.70
2019-01-06T20:40:21.055Z,9.77
2019-01-06T20:43:21.841Z,9.20
2019-01-06T20:46:31.046Z,10.30
2019-01-06T20:49:32.867Z,9.50
2019-01-06T20:52:41.636Z,10.57
2019-01-06T20:55:29.695Z,10.57
2019-01-06T20:58:29.606Z,9.80
2019-01-06T21:01:38.584Z,9.50
2019-01-06T21:04:52.361Z,8.70
2019-01-06T21:07:49.987Z,9.70
2019-01-06T21:10:49.841Z,10.33
2019-01-06T21:14:08.167Z,8.70
2019-01-06T21:17:11.495Z,10.23
2019-01-06T21:20:06.239Z,10.10
2019-01-06T21:26:29.912Z,10.53
2019-01-06T21:29:21.852Z,10.53
2019-01-06T21:32:28.546Z,11.30
2019-01-06T21:35:35.382Z,15.50
2019-01-06T21:41:58.704Z,12.30
2019-01-06T21:44:53.155Z,10.90
2019-01-06T21:47:52.489Z,10.90
2019-01-06T21:51:01.747Z,10.57
2019-01-06T21:53:51.902Z,10.13
2019-01-06T21:56:48.236Z,10.70
2019-01-06T21:59:41.319Z,10.40
2019-01-06T22:02:41.006Z,9.97
2019-01-06T22:05:28.699Z,14.27
2019-01-06T22:08:35.586Z,10.33
2019-01-06T22:11:32.764Z,9.77
2019-01-06T22:14:27.883Z,10.00
2019-01-06T22:17:35.426Z,11.13
2019-01-06T22:20:57.194Z,10.17
2019-01-06T22:23:44.355Z,11.10
2019-01-06T22:26:43.954Z,9.90
2019-01-06T22:29:49.597Z,9.50
2019-01-06T22:36:19.156Z,10.37
2019-01-06T22:39:10.868Z,12.70
2019-01-06T22:42:07.598Z,13.60
2019-01-06T22:45:03.968Z,12.73
2019-01-06T22:51:10.340Z,11.80
2019-01-06T22:54:01.581Z,13.30
2019-01-06T22:57:08.540Z,13.53
2019-01-06T23:00:07.441Z,13.00
2019-01-06T23:03:13.815Z,12.97
2019-01-06T23:06:07.635Z,13.03
2019-01-06T23:09:07.299Z,12.87
2019-01-06T23:11:55.071Z,12.67
2019-01-06T23:14:42.080Z,12.27
2019-01-06T23:17:32.224Z,13.30
2019-01-06T23:20:24.650Z,12.03
2019-01-06T23:23:12.972Z,12.00
2019-01-06T23:26:02.815Z,11.60
2019-01-06T23:39:03.618Z,12.73
2019-01-06T23:41:51.559Z,11.10
2019-01-06T23:44:42.979Z,12.33
2019-01-06T23:47:59.172Z,11.57
2019-01-06T23:50:46.504Z,12.83
2019-01-06T23:53:33.977Z,12.50
2019-01-06T23:56:27.090Z,13.53
2019-01-06T23:59:16.848Z,11.80
